sensor_id;sensor_type;location;lat;lon;timestamp;P1;durP1;ratioP1;P2;durP2;ratioP2
28007;SDS011;15333;50.010;20.020;2024-02-14T00:02:41;49.53;;;27.48;;
28007;SDS011;15333;50.010;20.020;2024-02-14T00:05:45;51.95;;;27.85;;
28007;SDS011;15333;50.010;20.020;2024-02-14T00:08:45;53.53;;;29.02;;
28007;SDS011;15333;50.010;20.020;2024-02-14T00:11:46;55.63;;;30.30;;
28007;SDS011;15333;50.010;20.020;2024-02-14T00:14:47;55.15;;;29.65;;
28007;SDS011;15333;50.010;20.020;2024-02-14T00:17:49;58.05;;;32.08;;
28007;SDS011;15333;50.010;20.020;2024-02-14T00:20:50;59.38;;;32.70;;
28007;SDS011;15333;50.010;20.020;2024-02-14T00:23:51;65.57;;;35.58;;
28007;SDS011;15333;50.010;20.020;2024-02-14T00:26:52;66.65;;;35.03;;
28007;SDS011;15333;50.010;20.020;2024-02-14T00:29:53;66.90;;;35.03;;
28007;SDS011;15333;50.010;20.020;2024-02-14T00:32:54;64.95;;;34.55;;
28007;SDS011;15333;50.010;20.020;2024-02-14T00:35:55;67.13;;;33.88;;
28007;SDS011;15333;50.010;20.020;2024-02-14T00:38:56;65.97;;;34.75;;
28007;SDS011;15333;50.010;20.020;2024-02-14T00:41:57;65.00;;;35.00;;
28007;SDS011;15333;50.010;20.020;2024-02-14T00:44:57;65.85;;;35.03;;
28007;SDS011;15333;50.010;20.020;2024-02-14T00:47:58;67.43;;;35.30;;
28007;SDS011;15333;50.010;20.020;2024-02-14T00:50:59;64.60;;;35.28;;
28007;SDS011;15333;50.010;20.020;2024-02-14T00:54:00;64.70;;;35.65;;
28007;SDS011;15333;50.010;20.020;2024-02-14T00:57:01;64.53;;;35.30;;
28007;SDS011;15333;50.010;20.020;2024-02-14T01:00:02;67.32;;;36.42;;
28007;SDS011;15333;50.010;20.020;2024-02-14T01:03:04;64.20;;;35.50;;
28007;SDS011;15333;50.010;20.020;2024-02-14T01:06:07;66.82;;;35.35;;
28007;SDS011;15333;50.010;20.020;2024-02-14T01:09:08;68.20;;;36.97;;
28007;SDS011;15333;50.010;20.020;2024-02-14T01:12:09;71.13;;;38.40;;
28007;SDS011;15333;50.010;20.020;2024-02-14T01:15:10;72.60;;;37.63;;
28007;SDS011;15333;50.010;20.020;2024-02-14T01:18:11;70.95;;;38.70;;
28007;SDS011;15333;50.010;20.020;2024-02-14T01:21:11;74.15;;;39.95;;
28007;SDS011;15333;50.010;20.020;2024-02-14T01:24:13;75.03;;;39.97;;
28007;SDS011;15333;50.010;20.020;2024-02-14T01:27:13;77.47;;;40.95;;
28007;SDS011;15333;50.010;20.020;2024-02-14T01:30:14;76.78;;;42.53;;
28007;SDS011;15333;50.010;20.020;2024-02-14T01:33:15;74.00;;;41.78;;
28007;SDS011;15333;50.010;20.020;2024-02-14T01:36:17;83.00;;;44.45;;
28007;SDS011;15333;50.010;20.020;2024-02-14T01:39:18;80.25;;;42.80;;
28007;SDS011;15333;50.010;20.020;2024-02-14T01:42:19;82.18;;;44.45;;
28007;SDS011;15333;50.010;20.020;2024-02-14T01:45:20;78.35;;;43.88;;
28007;SDS011;15333;50.010;20.020;2024-02-14T01:48:22;79.47;;;44.53;;
28007;SDS011;15333;50.010;20.020;2024-02-14T01:51:23;81.80;;;43.78;;
28007;SDS011;15333;50.010;20.020;2024-02-14T01:54:25;83.60;;;45.78;;
28007;SDS011;15333;50.010;20.020;2024-02-14T01:57:27;85.93;;;44.38;;
28007;SDS011;15333;50.010;20.020;2024-02-14T02:00:29;82.38;;;46.10;;
28007;SDS011;15333;50.010;20.020;2024-02-14T02:03:34;90.07;;;46.70;;
28007;SDS011;15333;50.010;20.020;2024-02-14T02:06:37;82.85;;;45.90;;
28007;SDS011;15333;50.010;20.020;2024-02-14T02:09:38;90.38;;;46.78;;
28007;SDS011;15333;50.010;20.020;2024-02-14T02:12:39;89.05;;;46.95;;
28007;SDS011;15333;50.010;20.020;2024-02-14T02:15:40;90.13;;;46.58;;
28007;SDS011;15333;50.010;20.020;2024-02-14T02:18:41;89.78;;;48.90;;
28007;SDS011;15333;50.010;20.020;2024-02-14T02:21:42;91.32;;;46.42;;
28007;SDS011;15333;50.010;20.020;2024-02-14T02:24:46;90.40;;;50.22;;
28007;SDS011;15333;50.010;20.020;2024-02-14T02:27:48;81.75;;;47.00;;
28007;SDS011;15333;50.010;20.020;2024-02-14T02:30:49;82.80;;;43.83;;
28007;SDS011;15333;50.010;20.020;2024-02-14T02:33:49;84.45;;;47.03;;
28007;SDS011;15333;50.010;20.020;2024-02-14T02:36:51;93.18;;;49.47;;
28007;SDS011;15333;50.010;20.020;2024-02-14T02:39:52;89.32;;;46.38;;
28007;SDS011;15333;50.010;20.020;2024-02-14T02:42:54;82.88;;;45.47;;
28007;SDS011;15333;50.010;20.020;2024-02-14T02:45:55;87.35;;;46.70;;
28007;SDS011;15333;50.010;20.020;2024-02-14T02:48:56;92.18;;;48.33;;
28007;SDS011;15333;50.010;20.020;2024-02-14T02:51:57;91.65;;;49.70;;
28007;SDS011;15333;50.010;20.020;2024-02-14T02:54:58;90.10;;;50.50;;
28007;SDS011;15333;50.010;20.020;2024-02-14T02:57:59;91.45;;;50.75;;
28007;SDS011;15333;50.010;20.020;2024-02-14T03:01:01;88.47;;;50.92;;
28007;SDS011;15333;50.010;20.020;2024-02-14T03:04:02;90.80;;;51.13;;
28007;SDS011;15333;50.010;20.020;2024-02-14T03:07:03;87.97;;;50.20;;
28007;SDS011;15333;50.010;20.020;2024-02-14T03:10:07;86.82;;;49.08;;
28007;SDS011;15333;50.010;20.020;2024-02-14T03:13:08;92.53;;;47.97;;
28007;SDS011;15333;50.010;20.020;2024-02-14T03:16:12;85.50;;;47.22;;
28007;SDS011;15333;50.010;20.020;2024-02-14T03:19:12;85.15;;;46.28;;
28007;SDS011;15333;50.010;20.020;2024-02-14T03:22:13;79.75;;;43.80;;
28007;SDS011;15333;50.010;20.020;2024-02-14T03:28:18;81.18;;;42.70;;
28007;SDS011;15333;50.010;20.020;2024-02-14T03:31:20;89.03;;;43.60;;
28007;SDS011;15333;50.010;20.020;2024-02-14T03:34:21;77.80;;;40.33;;
28007;SDS011;15333;50.010;20.020;2024-02-14T03:37:22;81.30;;;41.03;;
28007;SDS011;15333;50.010;20.020;2024-02-14T03:40:22;83.97;;;43.05;;
28007;SDS011;15333;50.010;20.020;2024-02-14T03:43:24;84.97;;;42.55;;
28007;SDS011;15333;50.010;20.020;2024-02-14T03:46:25;77.65;;;40.63;;
28007;SDS011;15333;50.010;20.020;2024-02-14T03:49:26;73.55;;;39.13;;
28007;SDS011;15333;50.010;20.020;2024-02-14T03:52:27;72.43;;;38.05;;
28007;SDS011;15333;50.010;20.020;2024-02-14T03:55:28;74.72;;;38.75;;
28007;SDS011;15333;50.010;20.020;2024-02-14T03:58:30;68.90;;;36.83;;
28007;SDS011;15333;50.010;20.020;2024-02-14T04:01:31;74.63;;;38.92;;
28007;SDS011;15333;50.010;20.020;2024-02-14T04:04:33;72.10;;;38.38;;
28007;SDS011;15333;50.010;20.020;2024-02-14T04:07:34;71.45;;;36.65;;
28007;SDS011;15333;50.010;20.020;2024-02-14T04:10:35;72.90;;;38.20;;
28007;SDS011;15333;50.010;20.020;2024-02-14T04:13:37;61.90;;;34.78;;
28007;SDS011;15333;50.010;20.020;2024-02-14T04:16:38;66.22;;;36.58;;
28007;SDS011;15333;50.010;20.020;2024-02-14T04:19:39;64.45;;;35.80;;
28007;SDS011;15333;50.010;20.020;2024-02-14T04:22:40;57.08;;;31.98;;
28007;SDS011;15333;50.010;20.020;2024-02-14T04:25:41;56.50;;;30.45;;
28007;SDS011;15333;50.010;20.020;2024-02-14T04:28:41;56.58;;;30.92;;
28007;SDS011;15333;50.010;20.020;2024-02-14T04:31:42;62.38;;;32.35;;
28007;SDS011;15333;50.010;20.020;2024-02-14T04:34:43;68.03;;;35.85;;
28007;SDS011;15333;50.010;20.020;2024-02-14T04:37:44;69.28;;;34.30;;
28007;SDS011;15333;50.010;20.020;2024-02-14T04:40:46;73.78;;;37.65;;
28007;SDS011;15333;50.010;20.020;2024-02-14T04:43:48;70.00;;;37.90;;
28007;SDS011;15333;50.010;20.020;2024-02-14T04:46:49;72.75;;;35.78;;
28007;SDS011;15333;50.010;20.020;2024-02-14T04:49:50;69.97;;;37.22;;
28007;SDS011;15333;50.010;20.020;2024-02-14T04:52:51;68.95;;;35.95;;
28007;SDS011;15333;50.010;20.020;2024-02-14T04:55:53;70.60;;;37.15;;
28007;SDS011;15333;50.010;20.020;2024-02-14T04:58:54;69.60;;;35.95;;
28007;SDS011;15333;50.010;20.020;2024-02-14T05:01:58;62.10;;;34.25;;
28007;SDS011;15333;50.010;20.020;2024-02-14T05:04:59;58.33;;;31.98;;
28007;SDS011;15333;50.010;20.020;2024-02-14T05:08:00;67.45;;;33.38;;
28007;SDS011;15333;50.010;20.020;2024-02-14T05:11:02;71.90;;;35.08;;
28007;SDS011;15333;50.010;20.020;2024-02-14T05:14:04;57.80;;;29.13;;
28007;SDS011;15333;50.010;20.020;2024-02-14T05:17:05;59.13;;;27.30;;
28007;SDS011;15333;50.010;20.020;2024-02-14T05:20:06;54.25;;;25.50;;
28007;SDS011;15333;50.010;20.020;2024-02-14T05:23:10;46.33;;;24.40;;
28007;SDS011;15333;50.010;20.020;2024-02-14T05:26:11;57.17;;;26.38;;
28007;SDS011;15333;50.010;20.020;2024-02-14T05:29:12;48.63;;;26.60;;
28007;SDS011;15333;50.010;20.020;2024-02-14T05:32:14;49.03;;;27.77;;
28007;SDS011;15333;50.010;20.020;2024-02-14T05:35:15;54.03;;;27.60;;
28007;SDS011;15333;50.010;20.020;2024-02-14T05:38:16;51.70;;;26.73;;
28007;SDS011;15333;50.010;20.020;2024-02-14T05:41:19;56.88;;;29.92;;
28007;SDS011;15333;50.010;20.020;2024-02-14T05:44:20;62.53;;;31.67;;
28007;SDS011;15333;50.010;20.020;2024-02-14T05:47:22;55.78;;;29.42;;
28007;SDS011;15333;50.010;20.020;2024-02-14T05:50:24;54.33;;;30.58;;
28007;SDS011;15333;50.010;20.020;2024-02-14T05:53:24;55.35;;;29.67;;
28007;SDS011;15333;50.010;20.020;2024-02-14T05:56:25;51.50;;;28.15;;
28007;SDS011;15333;50.010;20.020;2024-02-14T05:59:26;55.03;;;28.40;;
28007;SDS011;15333;50.010;20.020;2024-02-14T06:02:27;52.25;;;28.83;;
28007;SDS011;15333;50.010;20.020;2024-02-14T06:05:28;55.15;;;28.42;;
28007;SDS011;15333;50.010;20.020;2024-02-14T06:08:29;52.75;;;27.80;;
28007;SDS011;15333;50.010;20.020;2024-02-14T06:11:30;48.17;;;22.75;;
28007;SDS011;15333;50.010;20.020;2024-02-14T06:14:31;37.40;;;20.85;;
28007;SDS011;15333;50.010;20.020;2024-02-14T06:17:34;43.47;;;23.98;;
28007;SDS011;15333;50.010;20.020;2024-02-14T06:20:35;47.88;;;23.85;;
28007;SDS011;15333;50.010;20.020;2024-02-14T06:23:37;42.95;;;24.65;;
28007;SDS011;15333;50.010;20.020;2024-02-14T06:26:39;57.58;;;29.50;;
28007;SDS011;15333;50.010;20.020;2024-02-14T06:29:43;52.10;;;27.55;;
28007;SDS011;15333;50.010;20.020;2024-02-14T06:32:44;56.50;;;26.98;;
28007;SDS011;15333;50.010;20.020;2024-02-14T06:35:45;53.83;;;25.48;;
28007;SDS011;15333;50.010;20.020;2024-02-14T06:38:46;50.00;;;26.92;;
28007;SDS011;15333;50.010;20.020;2024-02-14T06:41:47;76.45;;;34.83;;
28007;SDS011;15333;50.010;20.020;2024-02-14T06:44:48;73.03;;;34.70;;
28007;SDS011;15333;50.010;20.020;2024-02-14T06:47:50;64.45;;;30.65;;
28007;SDS011;15333;50.010;20.020;2024-02-14T06:50:51;59.53;;;29.95;;
28007;SDS011;15333;50.010;20.020;2024-02-14T06:53:51;62.70;;;27.85;;
28007;SDS011;15333;50.010;20.020;2024-02-14T06:56:52;48.25;;;24.15;;
28007;SDS011;15333;50.010;20.020;2024-02-14T06:59:53;44.92;;;25.50;;
28007;SDS011;15333;50.010;20.020;2024-02-14T07:02:54;43.10;;;22.52;;
28007;SDS011;15333;50.010;20.020;2024-02-14T07:05:56;54.45;;;29.50;;
28007;SDS011;15333;50.010;20.020;2024-02-14T07:08:57;65.60;;;30.20;;
28007;SDS011;15333;50.010;20.020;2024-02-14T07:11:58;63.42;;;30.13;;
28007;SDS011;15333;50.010;20.020;2024-02-14T07:14:59;47.85;;;26.15;;
28007;SDS011;15333;50.010;20.020;2024-02-14T07:17:59;67.38;;;30.45;;
28007;SDS011;15333;50.010;20.020;2024-02-14T07:21:00;55.47;;;26.55;;
28007;SDS011;15333;50.010;20.020;2024-02-14T07:24:06;55.38;;;27.90;;
28007;SDS011;15333;50.010;20.020;2024-02-14T07:27:07;54.65;;;24.90;;
28007;SDS011;15333;50.010;20.020;2024-02-14T07:30:07;46.97;;;24.10;;
28007;SDS011;15333;50.010;20.020;2024-02-14T07:33:09;44.80;;;22.33;;
28007;SDS011;15333;50.010;20.020;2024-02-14T07:36:10;47.15;;;21.65;;
28007;SDS011;15333;50.010;20.020;2024-02-14T07:39:11;48.95;;;22.30;;
28007;SDS011;15333;50.010;20.020;2024-02-14T07:42:12;44.80;;;22.52;;
28007;SDS011;15333;50.010;20.020;2024-02-14T07:45:13;39.17;;;21.00;;
28007;SDS011;15333;50.010;20.020;2024-02-14T07:48:15;41.45;;;22.67;;
28007;SDS011;15333;50.010;20.020;2024-02-14T07:51:16;36.05;;;18.30;;
28007;SDS011;15333;50.010;20.020;2024-02-14T07:54:16;33.47;;;16.98;;
28007;SDS011;15333;50.010;20.020;2024-02-14T07:57:17;30.63;;;16.42;;
28007;SDS011;15333;50.010;20.020;2024-02-14T08:00:18;27.48;;;14.05;;
28007;SDS011;15333;50.010;20.020;2024-02-14T08:03:23;29.50;;;12.77;;
28007;SDS011;15333;50.010;20.020;2024-02-14T08:06:25;23.75;;;12.18;;
28007;SDS011;15333;50.010;20.020;2024-02-14T08:09:26;32.75;;;13.00;;
28007;SDS011;15333;50.010;20.020;2024-02-14T08:12:26;22.27;;;11.02;;
28007;SDS011;15333;50.010;20.020;2024-02-14T08:15:27;40.03;;;20.30;;
28007;SDS011;15333;50.010;20.020;2024-02-14T08:18:28;54.75;;;29.60;;
28007;SDS011;15333;50.010;20.020;2024-02-14T08:21:29;51.92;;;28.35;;
28007;SDS011;15333;50.010;20.020;2024-02-14T08:24:31;50.95;;;25.55;;
28007;SDS011;15333;50.010;20.020;2024-02-14T08:27:32;52.90;;;26.55;;
28007;SDS011;15333;50.010;20.020;2024-02-14T08:30:33;52.22;;;27.67;;
28007;SDS011;15333;50.010;20.020;2024-02-14T08:33:34;47.72;;;25.05;;
28007;SDS011;15333;50.010;20.020;2024-02-14T08:36:35;44.80;;;25.30;;
28007;SDS011;15333;50.010;20.020;2024-02-14T08:39:41;41.47;;;21.20;;
28007;SDS011;15333;50.010;20.020;2024-02-14T08:42:42;34.88;;;19.95;;
28007;SDS011;15333;50.010;20.020;2024-02-14T08:45:43;35.60;;;15.75;;
28007;SDS011;15333;50.010;20.020;2024-02-14T08:48:43;37.83;;;15.57;;
28007;SDS011;15333;50.010;20.020;2024-02-14T08:51:47;17.10;;;7.90;;
28007;SDS011;15333;50.010;20.020;2024-02-14T08:54:49;6.57;;;3.00;;
28007;SDS011;15333;50.010;20.020;2024-02-14T08:57:50;13.63;;;4.93;;
28007;SDS011;15333;50.010;20.020;2024-02-14T09:00:51;4.38;;;2.95;;
28007;SDS011;15333;50.010;20.020;2024-02-14T09:03:53;8.02;;;3.72;;
28007;SDS011;15333;50.010;20.020;2024-02-14T09:06:53;9.35;;;3.28;;
28007;SDS011;15333;50.010;20.020;2024-02-14T09:09:55;6.13;;;2.72;;
28007;SDS011;15333;50.010;20.020;2024-02-14T09:12:56;4.63;;;2.60;;
28007;SDS011;15333;50.010;20.020;2024-02-14T09:15:57;6.00;;;2.92;;
28007;SDS011;15333;50.010;20.020;2024-02-14T09:18:57;8.00;;;2.83;;
28007;SDS011;15333;50.010;20.020;2024-02-14T09:21:59;4.35;;;2.35;;
28007;SDS011;15333;50.010;20.020;2024-02-14T09:25:00;9.23;;;2.47;;
28007;SDS011;15333;50.010;20.020;2024-02-14T09:28:01;5.65;;;2.20;;
28007;SDS011;15333;50.010;20.020;2024-02-14T09:31:01;7.90;;;2.90;;
28007;SDS011;15333;50.010;20.020;2024-02-14T09:34:04;5.93;;;2.80;;
28007;SDS011;15333;50.010;20.020;2024-02-14T09:37:05;6.65;;;2.17;;
28007;SDS011;15333;50.010;20.020;2024-02-14T09:40:07;4.40;;;2.25;;
28007;SDS011;15333;50.010;20.020;2024-02-14T09:43:18;7.25;;;2.15;;
28007;SDS011;15333;50.010;20.020;2024-02-14T09:46:27;5.90;;;2.45;;
28007;SDS011;15333;50.010;20.020;2024-02-14T09:49:31;4.35;;;2.30;;
28007;SDS011;15333;50.010;20.020;2024-02-14T09:52:32;12.23;;;2.90;;
28007;SDS011;15333;50.010;20.020;2024-02-14T09:55:33;7.38;;;2.53;;
28007;SDS011;15333;50.010;20.020;2024-02-14T09:58:34;6.13;;;2.55;;
28007;SDS011;15333;50.010;20.020;2024-02-14T10:01:37;4.50;;;2.22;;
28007;SDS011;15333;50.010;20.020;2024-02-14T10:04:38;6.13;;;2.58;;
28007;SDS011;15333;50.010;20.020;2024-02-14T10:07:40;5.45;;;2.58;;
28007;SDS011;15333;50.010;20.020;2024-02-14T10:10:44;11.32;;;2.83;;
28007;SDS011;15333;50.010;20.020;2024-02-14T10:13:46;4.85;;;2.60;;
28007;SDS011;15333;50.010;20.020;2024-02-14T10:16:48;4.35;;;2.70;;
28007;SDS011;15333;50.010;20.020;2024-02-14T10:19:58;5.85;;;2.30;;
28007;SDS011;15333;50.010;20.020;2024-02-14T10:23:01;4.72;;;2.30;;
28007;SDS011;15333;50.010;20.020;2024-02-14T10:26:04;5.68;;;2.65;;
28007;SDS011;15333;50.010;20.020;2024-02-14T10:29:05;4.95;;;2.60;;
28007;SDS011;15333;50.010;20.020;2024-02-14T10:32:06;5.32;;;2.53;;
28007;SDS011;15333;50.010;20.020;2024-02-14T10:35:07;6.88;;;2.42;;
28007;SDS011;15333;50.010;20.020;2024-02-14T10:38:13;7.35;;;2.60;;
28007;SDS011;15333;50.010;20.020;2024-02-14T10:41:17;15.52;;;3.50;;
28007;SDS011;15333;50.010;20.020;2024-02-14T10:44:18;5.90;;;2.60;;
28007;SDS011;15333;50.010;20.020;2024-02-14T10:47:22;4.95;;;2.58;;
28007;SDS011;15333;50.010;20.020;2024-02-14T10:50:30;5.10;;;2.30;;
28007;SDS011;15333;50.010;20.020;2024-02-14T10:53:35;5.25;;;2.30;;
28007;SDS011;15333;50.010;20.020;2024-02-14T10:56:41;4.55;;;2.70;;
28007;SDS011;15333;50.010;20.020;2024-02-14T10:59:46;5.40;;;2.60;;
28007;SDS011;15333;50.010;20.020;2024-02-14T11:02:49;6.32;;;2.67;;
28007;SDS011;15333;50.010;20.020;2024-02-14T11:05:53;5.88;;;2.67;;
28007;SDS011;15333;50.010;20.020;2024-02-14T11:09:01;7.07;;;3.08;;
28007;SDS011;15333;50.010;20.020;2024-02-14T11:12:11;5.20;;;2.78;;
28007;SDS011;15333;50.010;20.020;2024-02-14T11:15:14;4.53;;;2.40;;
28007;SDS011;15333;50.010;20.020;2024-02-14T11:18:24;4.85;;;2.63;;
28007;SDS011;15333;50.010;20.020;2024-02-14T11:21:27;5.88;;;2.28;;
28007;SDS011;15333;50.010;20.020;2024-02-14T11:24:30;4.75;;;2.55;;
28007;SDS011;15333;50.010;20.020;2024-02-14T11:27:32;4.82;;;2.67;;
28007;SDS011;15333;50.010;20.020;2024-02-14T11:30:34;4.68;;;2.33;;
28007;SDS011;15333;50.010;20.020;2024-02-14T11:33:35;7.40;;;2.75;;
28007;SDS011;15333;50.010;20.020;2024-02-14T11:36:38;6.75;;;2.53;;
28007;SDS011;15333;50.010;20.020;2024-02-14T11:39:41;6.43;;;2.30;;
28007;SDS011;15333;50.010;20.020;2024-02-14T11:42:42;6.55;;;3.28;;
28007;SDS011;15333;50.010;20.020;2024-02-14T11:45:44;4.68;;;2.58;;
28007;SDS011;15333;50.010;20.020;2024-02-14T11:48:46;7.07;;;2.83;;
28007;SDS011;15333;50.010;20.020;2024-02-14T11:51:47;6.45;;;2.60;;
28007;SDS011;15333;50.010;20.020;2024-02-14T11:54:48;3.95;;;2.30;;
28007;SDS011;15333;50.010;20.020;2024-02-14T11:57:49;7.45;;;2.30;;
28007;SDS011;15333;50.010;20.020;2024-02-14T12:00:51;5.10;;;2.40;;
28007;SDS011;15333;50.010;20.020;2024-02-14T12:03:52;8.65;;;2.50;;
28007;SDS011;15333;50.010;20.020;2024-02-14T12:06:53;11.00;;;2.97;;
28007;SDS011;15333;50.010;20.020;2024-02-14T12:09:55;5.38;;;2.10;;
28007;SDS011;15333;50.010;20.020;2024-02-14T12:12:56;7.35;;;2.88;;
28007;SDS011;15333;50.010;20.020;2024-02-14T12:15:57;7.88;;;2.67;;
28007;SDS011;15333;50.010;20.020;2024-02-14T12:19:05;5.30;;;2.60;;
28007;SDS011;15333;50.010;20.020;2024-02-14T12:22:10;5.75;;;2.75;;
28007;SDS011;15333;50.010;20.020;2024-02-14T12:25:20;5.05;;;2.60;;
28007;SDS011;15333;50.010;20.020;2024-02-14T12:28:22;6.07;;;2.50;;
28007;SDS011;15333;50.010;20.020;2024-02-14T12:31:24;4.80;;;2.13;;
28007;SDS011;15333;50.010;20.020;2024-02-14T12:34:27;6.13;;;2.78;;
28007;SDS011;15333;50.010;20.020;2024-02-14T12:37:28;7.53;;;2.80;;
28007;SDS011;15333;50.010;20.020;2024-02-14T12:40:29;8.75;;;2.78;;
28007;SDS011;15333;50.010;20.020;2024-02-14T12:43:30;4.43;;;2.45;;
28007;SDS011;15333;50.010;20.020;2024-02-14T12:46:31;10.02;;;2.67;;
28007;SDS011;15333;50.010;20.020;2024-02-14T12:49:32;7.47;;;3.15;;
28007;SDS011;15333;50.010;20.020;2024-02-14T12:52:34;4.68;;;2.70;;
28007;SDS011;15333;50.010;20.020;2024-02-14T12:55:35;4.75;;;2.47;;
28007;SDS011;15333;50.010;20.020;2024-02-14T12:58:36;5.10;;;2.83;;
28007;SDS011;15333;50.010;20.020;2024-02-14T13:01:37;7.50;;;2.60;;
28007;SDS011;15333;50.010;20.020;2024-02-14T13:04:40;9.27;;;2.50;;
28007;SDS011;15333;50.010;20.020;2024-02-14T13:07:42;7.15;;;2.42;;
28007;SDS011;15333;50.010;20.020;2024-02-14T13:10:43;5.50;;;2.38;;
28007;SDS011;15333;50.010;20.020;2024-02-14T13:13:44;9.88;;;2.70;;
28007;SDS011;15333;50.010;20.020;2024-02-14T13:16:45;5.32;;;2.80;;
28007;SDS011;15333;50.010;20.020;2024-02-14T13:19:46;5.90;;;3.33;;
28007;SDS011;15333;50.010;20.020;2024-02-14T13:22:49;6.25;;;3.20;;
28007;SDS011;15333;50.010;20.020;2024-02-14T13:25:50;9.95;;;3.22;;
28007;SDS011;15333;50.010;20.020;2024-02-14T13:28:51;7.05;;;3.30;;
28007;SDS011;15333;50.010;20.020;2024-02-14T13:31:52;11.00;;;3.58;;
28007;SDS011;15333;50.010;20.020;2024-02-14T13:34:53;7.30;;;3.10;;
28007;SDS011;15333;50.010;20.020;2024-02-14T13:37:54;5.20;;;3.15;;
28007;SDS011;15333;50.010;20.020;2024-02-14T13:40:56;7.00;;;3.25;;
28007;SDS011;15333;50.010;20.020;2024-02-14T13:43:57;7.28;;;3.40;;
28007;SDS011;15333;50.010;20.020;2024-02-14T13:46:58;6.95;;;3.40;;
28007;SDS011;15333;50.010;20.020;2024-02-14T13:50:00;6.30;;;3.42;;
28007;SDS011;15333;50.010;20.020;2024-02-14T13:53:01;7.35;;;3.92;;
28007;SDS011;15333;50.010;20.020;2024-02-14T13:56:02;6.85;;;3.08;;
28007;SDS011;15333;50.010;20.020;2024-02-14T13:59:02;7.93;;;3.17;;
28007;SDS011;15333;50.010;20.020;2024-02-14T14:02:03;8.15;;;3.42;;
28007;SDS011;15333;50.010;20.020;2024-02-14T14:05:04;5.78;;;3.80;;
28007;SDS011;15333;50.010;20.020;2024-02-14T14:08:07;10.27;;;3.88;;
28007;SDS011;15333;50.010;20.020;2024-02-14T14:11:08;16.02;;;4.15;;
28007;SDS011;15333;50.010;20.020;2024-02-14T14:14:09;10.70;;;3.92;;
28007;SDS011;15333;50.010;20.020;2024-02-14T14:17:16;6.57;;;3.83;;
28007;SDS011;15333;50.010;20.020;2024-02-14T14:20:17;8.25;;;3.85;;
28007;SDS011;15333;50.010;20.020;2024-02-14T14:23:18;7.28;;;3.75;;
28007;SDS011;15333;50.010;20.020;2024-02-14T14:26:20;8.07;;;3.95;;
28007;SDS011;15333;50.010;20.020;2024-02-14T14:29:21;7.57;;;4.00;;
28007;SDS011;15333;50.010;20.020;2024-02-14T14:32:23;6.75;;;3.78;;
28007;SDS011;15333;50.010;20.020;2024-02-14T14:35:24;9.82;;;4.50;;
28007;SDS011;15333;50.010;20.020;2024-02-14T14:38:25;12.02;;;3.70;;
28007;SDS011;15333;50.010;20.020;2024-02-14T14:41:27;9.82;;;4.35;;
28007;SDS011;15333;50.010;20.020;2024-02-14T14:44:29;8.73;;;4.72;;
28007;SDS011;15333;50.010;20.020;2024-02-14T14:47:31;6.40;;;3.58;;
28007;SDS011;15333;50.010;20.020;2024-02-14T14:50:32;7.40;;;3.95;;
28007;SDS011;15333;50.010;20.020;2024-02-14T14:53:32;8.45;;;4.10;;
28007;SDS011;15333;50.010;20.020;2024-02-14T14:56:34;10.88;;;4.63;;
28007;SDS011;15333;50.010;20.020;2024-02-14T14:59:35;8.93;;;3.92;;
28007;SDS011;15333;50.010;20.020;2024-02-14T15:02:39;10.90;;;4.60;;
28007;SDS011;15333;50.010;20.020;2024-02-14T15:05:41;11.00;;;4.47;;
28007;SDS011;15333;50.010;20.020;2024-02-14T15:08:42;15.75;;;4.32;;
28007;SDS011;15333;50.010;20.020;2024-02-14T15:11:43;10.27;;;4.38;;
28007;SDS011;15333;50.010;20.020;2024-02-14T15:14:45;7.32;;;4.20;;
28007;SDS011;15333;50.010;20.020;2024-02-14T15:17:45;10.05;;;4.30;;
28007;SDS011;15333;50.010;20.020;2024-02-14T15:20:46;13.32;;;5.32;;
28007;SDS011;15333;50.010;20.020;2024-02-14T15:23:47;9.02;;;4.65;;
28007;SDS011;15333;50.010;20.020;2024-02-14T15:26:48;19.30;;;7.78;;
28007;SDS011;15333;50.010;20.020;2024-02-14T15:30:00;12.10;;;5.93;;
28007;SDS011;15333;50.010;20.020;2024-02-14T15:33:20;9.35;;;4.40;;
28007;SDS011;15333;50.010;20.020;2024-02-14T15:36:23;10.55;;;4.32;;
28007;SDS011;15333;50.010;20.020;2024-02-14T15:39:24;7.38;;;3.83;;
28007;SDS011;15333;50.010;20.020;2024-02-14T15:42:25;9.43;;;4.60;;
28007;SDS011;15333;50.010;20.020;2024-02-14T15:45:27;18.27;;;5.15;;
28007;SDS011;15333;50.010;20.020;2024-02-14T15:48:28;10.68;;;5.00;;
28007;SDS011;15333;50.010;20.020;2024-02-14T15:51:30;10.95;;;5.13;;
28007;SDS011;15333;50.010;20.020;2024-02-14T15:54:30;16.00;;;5.55;;
28007;SDS011;15333;50.010;20.020;2024-02-14T15:57:32;17.35;;;5.95;;
28007;SDS011;15333;50.010;20.020;2024-02-14T16:00:33;16.70;;;5.55;;
28007;SDS011;15333;50.010;20.020;2024-02-14T16:03:35;14.23;;;5.85;;
28007;SDS011;15333;50.010;20.020;2024-02-14T16:06:36;12.50;;;5.65;;
28007;SDS011;15333;50.010;20.020;2024-02-14T16:09:37;13.07;;;4.53;;
28007;SDS011;15333;50.010;20.020;2024-02-14T16:12:38;10.57;;;4.07;;
28007;SDS011;15333;50.010;20.020;2024-02-14T16:15:43;10.18;;;3.97;;
28007;SDS011;15333;50.010;20.020;2024-02-14T16:18:43;13.85;;;5.30;;
28007;SDS011;15333;50.010;20.020;2024-02-14T16:21:44;17.20;;;5.28;;
28007;SDS011;15333;50.010;20.020;2024-02-14T16:24:45;17.55;;;6.43;;
28007;SDS011;15333;50.010;20.020;2024-02-14T16:27:49;13.93;;;6.82;;
28007;SDS011;15333;50.010;20.020;2024-02-14T16:30:50;20.67;;;7.65;;
28007;SDS011;15333;50.010;20.020;2024-02-14T16:33:52;18.13;;;8.63;;
28007;SDS011;15333;50.010;20.020;2024-02-14T16:36:52;22.95;;;10.07;;
28007;SDS011;15333;50.010;20.020;2024-02-14T16:39:55;23.17;;;11.93;;
28007;SDS011;15333;50.010;20.020;2024-02-14T16:42:56;25.23;;;11.70;;
28007;SDS011;15333;50.010;20.020;2024-02-14T16:45:59;22.83;;;12.25;;
28007;SDS011;15333;50.010;20.020;2024-02-14T16:49:00;28.80;;;15.15;;
28007;SDS011;15333;50.010;20.020;2024-02-14T16:52:04;34.38;;;15.88;;
28007;SDS011;15333;50.010;20.020;2024-02-14T16:55:07;32.38;;;16.83;;
28007;SDS011;15333;50.010;20.020;2024-02-14T16:58:08;39.97;;;19.67;;
28007;SDS011;15333;50.010;20.020;2024-02-14T17:01:09;42.10;;;21.10;;
28007;SDS011;15333;50.010;20.020;2024-02-14T17:04:10;47.72;;;21.63;;
28007;SDS011;15333;50.010;20.020;2024-02-14T17:07:11;41.28;;;21.67;;
28007;SDS011;15333;50.010;20.020;2024-02-14T17:10:14;45.75;;;21.08;;
28007;SDS011;15333;50.010;20.020;2024-02-14T17:13:15;43.90;;;21.75;;
28007;SDS011;15333;50.010;20.020;2024-02-14T17:16:17;45.92;;;21.85;;
28007;SDS011;15333;50.010;20.020;2024-02-14T17:19:18;43.60;;;21.27;;
28007;SDS011;15333;50.010;20.020;2024-02-14T17:22:20;50.85;;;22.35;;
28007;SDS011;15333;50.010;20.020;2024-02-14T17:25:21;39.28;;;20.40;;
28007;SDS011;15333;50.010;20.020;2024-02-14T17:28:22;41.65;;;20.73;;
28007;SDS011;15333;50.010;20.020;2024-02-14T17:31:23;48.47;;;20.85;;
28007;SDS011;15333;50.010;20.020;2024-02-14T17:34:24;43.42;;;20.33;;
28007;SDS011;15333;50.010;20.020;2024-02-14T17:37:26;34.20;;;19.33;;
28007;SDS011;15333;50.010;20.020;2024-02-14T17:40:27;55.40;;;23.80;;
28007;SDS011;15333;50.010;20.020;2024-02-14T17:43:28;51.10;;;23.13;;